Time;durP1;ratioP1;P1;durP2;ratioP2;P2;SDS_P1;SDS_P2;PMS_P1;PMS_P2;Temp;Humidity;BMP_temperature;BMP_pressure;BME280_temperature;BME280_humidity;BME280_pressure;Samples;Min_cycle;Max_cycle;Signal;HPM_P1;HPM_P2
2022/01/20 00:03:42;;;;;;;19.02;7.22;;;-2.40;99.90;;;;;;5243131;28;20388;-71
2022/01/20 00:28:25;;;;;;;13.05;5.90;;;-2.30;99.90;;;;;;5243240;28;20469;-70
2022/01/20 00:31:07;;;;;;;14.60;6.55;;;-2.30;99.90;;;;;;5220827;28;20033;-70
2022/01/20 00:33:45;;;;;;;12.05;6.45;;;-2.10;99.90;;;;;;5231289;28;20025;-70
2022/01/20 00:38:47;;;;;;;16.50;6.47;;;-1.90;99.90;;;;;;5249246;28;20023;-70
2022/01/20 00:41:18;;;;;;;13.70;6.85;;;-1.90;99.90;;;;;;5236472;28;20032;-70
2022/01/20 00:43:49;;;;;;;15.10;6.45;;;-2.30;99.90;;;;;;5217404;28;20101;-70
2022/01/20 00:46:20;;;;;;;13.45;6.32;;;-1.80;99.90;;;;;;5241587;28;20021;-71
2022/01/20 00:48:51;;;;;;;14.18;6.20;;;-2.10;99.90;;;;;;5237516;28;20082;-69
2022/01/20 00:51:23;;;;;;;12.20;6.20;;;-1.80;99.90;;;;;;5247721;28;20434;-69
2022/01/20 00:53:54;;;;;;;13.93;6.47;;;-1.70;99.90;;;;;;5248124;28;20634;-69
2022/01/20 00:56:25;;;;;;;11.10;5.38;;;-2.00;99.90;;;;;;5243345;28;20116;-69
2022/01/20 00:58:56;;;;;;;9.88;5.18;;;-1.80;99.90;;;;;;5241055;28;20048;-69
2022/01/20 01:01:27;;;;;;;12.27;6.00;;;-1.70;99.90;;;;;;5235256;28;20041;-69
2022/01/20 01:03:58;;;;;;;10.93;5.93;;;-1.80;99.90;;;;;;5242762;28;20024;-68
2022/01/20 01:07:26;;;;;;;14.25;6.35;;;-1.50;99.90;;;;;;5247301;28;20078;-69
2022/01/20 01:09:20;;;;;;;15.63;5.50;;;-1.40;99.90;;;;;;5224308;28;20033;-69
2022/01/20 01:11:58;;;;;;;11.23;5.47;;;-0.90;99.90;;;;;;5248153;28;20043;-70
2022/01/20 01:14:31;;;;;;;11.82;5.50;;;-1.00;99.90;;;;;;5252180;28;20032;-69
2022/01/20 01:22:31;;;;;;;9.05;4.97;;;-1.10;99.90;;;;;;5248250;28;20051;-69
2022/01/20 01:25:09;;;;;;;9.55;5.28;;;-1.00;99.90;;;;;;5237919;28;20468;-69
2022/01/20 01:27:48;;;;;;;11.57;5.70;;;-1.50;99.90;;;;;;5231416;28;20123;-70
2022/01/20 01:30:41;;;;;;;13.02;5.80;;;-1.20;99.90;;;;;;5247497;28;20031;-69
2022/01/20 01:33:12;;;;;;;9.35;5.40;;;-1.60;99.90;;;;;;5238633;28;20036;-70
2022/01/20 01:35:43;;;;;;;9.70;5.72;;;-1.40;99.90;;;;;;5246735;28;20429;-69
2022/01/20 01:40:45;;;;;;;14.18;6.18;;;-1.30;99.90;;;;;;5243355;28;20369;-71
2022/01/20 01:43:24;;;;;;;9.18;5.32;;;-1.30;99.90;;;;;;5244681;28;20033;-71
2022/01/20 01:45:56;;;;;;;12.95;5.60;;;-1.00;99.90;;;;;;5233083;28;20041;-71
2022/01/20 01:48:28;;;;;;;9.88;4.78;;;-1.10;99.90;;;;;;5248633;28;20108;-70
2022/01/20 01:51:04;;;;;;;13.32;5.78;;;-0.40;99.90;;;;;;5245781;28;20025;-70
2022/01/20 01:53:36;;;;;;;13.93;5.32;;;-0.50;99.90;;;;;;5239932;28;20033;-71
2022/01/20 01:56:07;;;;;;;15.65;5.13;;;-0.60;99.90;;;;;;5230579;28;20029;-70
2022/01/20 01:58:38;;;;;;;16.75;6.18;;;-0.20;99.90;;;;;;5244727;28;20643;-70
2022/01/20 02:01:09;;;;;;;11.40;4.65;;;-0.50;99.90;;;;;;5235992;28;20380;-70
2022/01/20 02:03:46;;;;;;;11.80;5.35;;;-0.30;99.90;;;;;;5228253;28;20025;-70
2022/01/20 02:06:34;;;;;;;10.75;5.00;;;-0.40;99.90;;;;;;5228118;28;20460;-70
2022/01/20 02:09:25;;;;;;;9.68;5.25;;;-0.30;99.90;;;;;;5228518;28;20033;-70
2022/01/20 02:17:56;;;;;;;14.05;5.70;;;-0.40;99.90;;;;;;5247721;28;20439;-69
2022/01/20 02:20:27;;;;;;;10.85;5.47;;;-0.70;99.90;;;;;;5244659;28;20035;-69
2022/01/20 02:22:58;;;;;;;12.32;5.18;;;-0.50;99.90;;;;;;5239982;28;20036;-70
2022/01/20 02:25:31;;;;;;;9.13;4.78;;;-0.30;99.90;;;;;;5247417;28;20459;-71
2022/01/20 02:28:10;;;;;;;15.95;4.93;;;-0.30;99.90;;;;;;5238673;28;20122;-71
2022/01/20 02:30:45;;;;;;;13.38;5.38;;;-0.20;99.90;;;;;;5236156;28;20359;-70
2022/01/20 02:33:19;;;;;;;7.55;4.20;;;0.00;99.90;;;;;;5240820;28;20363;-70
2022/01/20 02:35:53;;;;;;;15.90;5.18;;;-0.10;99.90;;;;;;5248585;28;20058;-69
2022/01/20 02:46:41;;;;;;;10.25;4.30;;;0.60;99.90;;;;;;5243900;28;20123;-69
2022/01/20 02:49:17;;;;;;;11.77;4.97;;;0.50;99.90;;;;;;5248079;28;20040;-69
2022/01/20 02:51:55;;;;;;;9.77;4.65;;;0.30;99.90;;;;;;5231519;28;20021;-69
2022/01/20 02:54:25;;;;;;;12.52;4.95;;;0.10;99.90;;;;;;5247690;28;20122;-70
2022/01/20 02:56:56;;;;;;;11.05;4.72;;;0.30;99.90;;;;;;5248263;28;20112;-70
2022/01/20 02:59:28;;;;;;;18.55;5.05;;;0.30;99.90;;;;;;5238187;28;20480;-70
2022/01/20 03:01:58;;;;;;;8.00;4.70;;;0.20;99.90;;;;;;5242538;28;20068;-70
2022/01/20 03:04:30;;;;;;;12.57;5.03;;;0.40;99.90;;;;;;5246452;28;20060;-70
2022/01/20 03:07:01;;;;;;;17.52;5.45;;;0.40;99.90;;;;;;5231084;28;20025;-70
2022/01/20 03:09:33;;;;;;;7.93;4.28;;;0.80;99.90;;;;;;5248129;28;20031;-70
2022/01/20 03:12:04;;;;;;;19.70;4.88;;;0.70;99.90;;;;;;5237303;28;20067;-70
2022/01/20 03:14:35;;;;;;;13.85;4.78;;;0.40;99.90;;;;;;5238594;28;20031;-70
2022/01/20 03:17:06;;;;;;;12.05;5.18;;;0.30;99.90;;;;;;5228940;28;20029;-70
2022/01/20 03:19:37;;;;;;;10.93;4.57;;;0.40;99.90;;;;;;5238645;28;20021;-70
2022/01/20 03:22:07;;;;;;;13.27;5.30;;;0.60;99.90;;;;;;5227175;28;20388;-70
2022/01/20 03:24:38;;;;;;;9.63;4.20;;;0.40;99.90;;;;;;5238160;28;20021;-70
2022/01/20 03:27:09;;;;;;;12.32;4.50;;;0.70;99.90;;;;;;5249839;28;20380;-70
2022/01/20 03:29:40;;;;;;;9.68;4.28;;;0.80;99.90;;;;;;5238467;28;20028;-69
2022/01/20 03:32:11;;;;;;;8.43;4.50;;;0.60;99.90;;;;;;5232356;28;20033;-70
2022/01/20 03:34:42;;;;;;;10.60;4.47;;;0.50;99.90;;;;;;5234337;28;20066;-70
2022/01/20 03:37:13;;;;;;;11.18;4.35;;;0.50;99.90;;;;;;5245878;28;20033;-70
2022/01/20 03:39:43;;;;;;;12.25;4.57;;;0.10;99.90;;;;;;5239980;28;20016;-70
2022/01/20 03:42:14;;;;;;;11.18;4.13;;;0.40;99.90;;;;;;5251661;28;20131;-71
2022/01/20 03:44:45;;;;;;;11.75;4.82;;;0.20;99.90;;;;;;5237894;28;20021;-71
2022/01/20 03:47:18;;;;;;;10.45;4.25;;;0.30;99.90;;;;;;5251214;28;20027;-71
2022/01/20 03:50:05;;;;;;;9.73;3.67;;;0.40;99.90;;;;;;5224579;28;20039;-70
2022/01/20 03:52:36;;;;;;;9.57;3.88;;;0.50;99.90;;;;;;5238393;28;20166;-70
2022/01/20 03:55:07;;;;;;;11.95;4.65;;;0.60;99.90;;;;;;5240450;28;20025;-70
2022/01/20 03:57:38;;;;;;;10.52;4.80;;;0.80;99.90;;;;;;5248217;28;20537;-71
2022/01/20 04:00:10;;;;;;;10.57;4.32;;;0.70;99.90;;;;;;5244759;28;20056;-70
2022/01/20 04:02:41;;;;;;;10.23;4.00;;;1.00;99.90;;;;;;5231592;28;20387;-70
2022/01/20 04:05:12;;;;;;;9.13;3.72;;;0.70;99.90;;;;;;5230746;28;20056;-70
2022/01/20 04:07:43;;;;;;;7.55;3.25;;;1.00;99.90;;;;;;5244608;28;20060;-71
2022/01/20 04:10:14;;;;;;;11.68;4.20;;;0.90;99.90;;;;;;5251098;28;20023;-71
2022/01/20 04:12:45;;;;;;;7.95;3.40;;;1.10;99.90;;;;;;5234313;28;20029;-70
2022/01/20 04:15:18;;;;;;;9.90;3.95;;;1.10;99.90;;;;;;5242006;28;20021;-70
2022/01/20 04:17:55;;;;;;;10.93;4.28;;;0.90;99.90;;;;;;5235925;28;20151;-69
2022/01/20 04:20:26;;;;;;;9.77;3.40;;;1.10;99.90;;;;;;5230223;28;20033;-70
2022/01/20 04:22:57;;;;;;;10.68;4.30;;;1.00;99.90;;;;;;5230221;28;20818;-70
2022/01/20 04:25:28;;;;;;;12.25;4.50;;;1.00;99.90;;;;;;5243481;28;20044;-71
2022/01/20 04:27:58;;;;;;;7.47;3.60;;;0.90;99.90;;;;;;5250541;28;20037;-69
2022/01/20 04:30:29;;;;;;;7.45;3.50;;;1.30;99.90;;;;;;5250610;28;20448;-70
2022/01/20 04:33:00;;;;;;;13.45;4.00;;;1.00;99.90;;;;;;5250246;28;20020;-70
2022/01/20 04:35:31;;;;;;;6.95;3.13;;;1.40;99.90;;;;;;5234114;28;20033;-69
2022/01/20 04:38:03;;;;;;;10.50;4.32;;;1.40;99.90;;;;;;5243204;28;20028;-70
2022/01/20 04:40:40;;;;;;;10.27;4.35;;;1.20;99.90;;;;;;5229664;28;20064;-70
2022/01/20 04:43:11;;;;;;;13.07;5.60;;;1.20;99.90;;;;;;5230844;28;20388;-70
2022/01/20 04:45:49;;;;;;;12.52;4.60;;;1.20;99.90;;;;;;5234216;28;20025;-70
2022/01/20 04:57:07;;;;;;;11.30;4.43;;;1.10;99.90;;;;;;5246562;28;20043;-70
2022/01/20 04:59:38;;;;;;;14.23;5.40;;;1.20;99.90;;;;;;5249763;28;20052;-70
2022/01/20 05:02:09;;;;;;;12.57;5.53;;;1.20;99.90;;;;;;5234443;28;20072;-70
2022/01/20 05:04:41;;;;;;;15.52;4.57;;;1.10;99.90;;;;;;5242326;28;20059;-70
2022/01/20 05:07:19;;;;;;;10.05;4.85;;;1.00;99.90;;;;;;5234871;28;20029;-70
2022/01/20 05:09:53;;;;;;;11.85;4.68;;;1.00;99.90;;;;;;5243945;28;20158;-70
2022/01/20 05:12:39;;;;;;;12.25;5.43;;;1.20;99.90;;;;;;5242647;28;20483;-70
2022/01/20 05:15:10;;;;;;;10.98;4.88;;;1.10;99.90;;;;;;5248478;28;20025;-70
2022/01/20 05:17:40;;;;;;;10.63;4.68;;;0.80;99.90;;;;;;5249389;28;20031;-70
2022/01/20 05:20:12;;;;;;;12.18;5.10;;;1.10;99.90;;;;;;5240703;28;20030;-70
2022/01/20 05:22:42;;;;;;;15.60;5.70;;;1.00;99.90;;;;;;5249638;28;20060;-70
2022/01/20 05:25:13;;;;;;;11.70;4.65;;;1.10;99.90;;;;;;5239107;28;20029;-70
2022/01/20 05:27:44;;;;;;;11.05;4.78;;;1.20;99.90;;;;;;5231905;28;20090;-70
2022/01/20 05:30:15;;;;;;;11.05;4.82;;;1.10;99.90;;;;;;5235785;28;20094;-70
2022/01/20 05:32:46;;;;;;;8.48;4.32;;;1.10;99.90;;;;;;5241751;28;20194;-70
2022/01/20 05:35:17;;;;;;;12.63;4.70;;;1.30;99.90;;;;;;5246314;28;20108;-70
2022/01/20 05:37:48;;;;;;;12.73;5.07;;;1.30;99.90;;;;;;5247527;28;20119;-70
2022/01/20 05:40:19;;;;;;;15.60;4.63;;;1.40;99.90;;;;;;5242141;28;20037;-70
2022/01/20 05:42:50;;;;;;;8.30;4.47;;;1.40;99.90;;;;;;5245989;28;20068;-71
2022/01/20 05:45:22;;;;;;;9.02;4.30;;;1.20;99.90;;;;;;5244185;28;20093;-71
2022/01/20 05:48:00;;;;;;;10.13;5.20;;;1.40;99.90;;;;;;5246718;28;20060;-71
2022/01/20 05:50:31;;;;;;;14.18;5.93;;;1.20;99.90;;;;;;5248098;28;20379;-70
2022/01/20 05:53:04;;;;;;;19.42;6.05;;;1.30;99.90;;;;;;5244071;28;20040;-70
2022/01/20 05:55:36;;;;;;;13.18;6.50;;;1.30;99.90;;;;;;5246687;28;20390;-71
2022/01/20 05:58:07;;;;;;;13.20;6.13;;;1.40;99.90;;;;;;5237712;28;20141;-71
2022/01/20 06:00:38;;;;;;;14.13;6.35;;;1.20;99.90;;;;;;5236315;28;20024;-71
2022/01/20 06:05:59;;;;;;;15.65;6.97;;;1.40;99.90;;;;;;5243685;28;20237;-72
2022/01/20 06:08:30;;;;;;;16.13;7.55;;;1.30;99.90;;;;;;5243630;28;20028;-71
2022/01/20 06:11:02;;;;;;;12.50;7.03;;;1.50;99.90;;;;;;5245004;28;20376;-72
2022/01/20 06:13:33;;;;;;;18.50;7.40;;;1.40;99.90;;;;;;5195395;28;20048;-70
2022/01/20 06:16:04;;;;;;;16.25;7.82;;;1.80;99.90;;;;;;5241575;28;20029;-71
2022/01/20 06:18:35;;;;;;;17.75;7.80;;;1.70;99.90;;;;;;5245770;28;20027;-72
2022/01/20 06:21:06;;;;;;;18.20;7.68;;;1.70;99.90;;;;;;5238048;28;20029;-71
2022/01/20 06:23:37;;;;;;;19.85;8.07;;;1.70;99.90;;;;;;5238132;28;20036;-72
2022/01/20 06:26:08;;;;;;;20.23;8.40;;;1.70;99.90;;;;;;5242069;28;20020;-71
2022/01/20 06:28:42;;;;;;;18.52;8.20;;;1.90;99.90;;;;;;5240467;28;20033;-71
2022/01/20 06:31:13;;;;;;;15.88;8.45;;;2.00;99.90;;;;;;5240909;28;20017;-71
2022/01/20 06:33:44;;;;;;;23.85;8.10;;;2.00;99.90;;;;;;5245567;28;20035;-70
2022/01/20 06:36:15;;;;;;;16.48;8.63;;;2.10;99.90;;;;;;5242668;28;20058;-71
2022/01/20 06:38:46;;;;;;;18.73;7.70;;;2.30;99.90;;;;;;5245119;28;20070;-70
2022/01/20 06:41:17;;;;;;;17.85;9.02;;;2.50;99.90;;;;;;5245417;28;20033;-71
2022/01/20 06:43:48;;;;;;;18.02;8.45;;;2.60;99.90;;;;;;5236645;28;20036;-70
2022/01/20 06:46:19;;;;;;;22.52;8.38;;;2.70;99.90;;;;;;5239716;28;20464;-71
2022/01/20 06:48:50;;;;;;;13.13;7.85;;;2.90;99.90;;;;;;5245830;28;20414;-70
2022/01/20 06:51:21;;;;;;;20.08;8.75;;;2.90;99.90;;;;;;5244028;28;20036;-70
2022/01/20 06:53:51;;;;;;;21.77;8.30;;;3.10;99.90;;;;;;5240928;28;20031;-70
2022/01/20 06:56:22;;;;;;;16.55;8.70;;;3.10;99.90;;;;;;5241938;28;20057;-69
2022/01/20 06:58:53;;;;;;;16.95;8.18;;;3.10;99.90;;;;;;5245400;28;20428;-70
2022/01/20 07:01:24;;;;;;;21.08;7.88;;;3.40;99.90;;;;;;5245687;28;20021;-70
2022/01/20 07:03:55;;;;;;;18.00;8.02;;;3.50;99.90;;;;;;5248208;28;20043;-70
2022/01/20 07:06:27;;;;;;;18.95;7.40;;;3.50;99.90;;;;;;5248017;28;20052;-71
2022/01/20 07:08:58;;;;;;;16.73;7.30;;;3.60;99.90;;;;;;5246396;28;20103;-71
2022/01/20 07:11:31;;;;;;;14.80;6.38;;;3.70;99.90;;;;;;5247236;28;20380;-71
2022/01/20 07:14:02;;;;;;;19.15;7.00;;;3.80;99.90;;;;;;5243817;28;20100;-72
2022/01/20 07:16:33;;;;;;;12.65;6.55;;;3.80;99.90;;;;;;5246048;28;20107;-70
2022/01/20 07:19:04;;;;;;;17.70;7.97;;;4.00;99.90;;;;;;5248677;28;20052;-71
2022/01/20 07:21:36;;;;;;;14.52;7.93;;;4.00;99.90;;;;;;5229939;28;20033;-70
2022/01/20 07:24:10;;;;;;;12.95;6.95;;;4.00;99.90;;;;;;5247625;28;20025;-70
2022/01/20 07:26:43;;;;;;;20.25;7.05;;;4.20;99.90;;;;;;5244409;28;20027;-70
2022/01/20 07:29:15;;;;;;;15.35;7.53;;;4.40;99.90;;;;;;5250938;28;20032;-70
2022/01/20 07:31:47;;;;;;;17.88;7.18;;;4.20;99.90;;;;;;5251535;28;20020;-71
2022/01/20 07:34:20;;;;;;;20.25;7.55;;;4.30;99.90;;;;;;5251136;28;20024;-69
2022/01/20 07:36:51;;;;;;;20.42;6.47;;;4.30;99.90;;;;;;5243199;28;20111;-70
2022/01/20 07:39:23;;;;;;;18.02;6.38;;;4.30;99.90;;;;;;5243402;28;20043;-70
2022/01/20 07:41:54;;;;;;;16.27;7.68;;;4.00;99.90;;;;;;5240337;28;20036;-70
2022/01/20 07:44:25;;;;;;;22.10;7.43;;;4.20;99.90;;;;;;5241389;28;20480;-70
2022/01/20 07:46:57;;;;;;;18.00;6.47;;;4.30;99.90;;;;;;5236402;28;20029;-70
2022/01/20 07:49:29;;;;;;;12.23;6.07;;;4.40;99.90;;;;;;5247055;28;20016;-70
2022/01/20 07:52:00;;;;;;;13.95;6.30;;;4.60;99.90;;;;;;5245575;28;20463;-71
2022/01/20 07:54:30;;;;;;;16.42;6.95;;;4.30;99.90;;;;;;5244916;28;20104;-70
2022/01/20 07:57:02;;;;;;;16.27;6.88;;;4.30;99.90;;;;;;5243320;28;20540;-70
2022/01/20 07:59:35;;;;;;;16.33;7.28;;;4.30;99.90;;;;;;5240062;28;20495;-71
2022/01/20 08:02:06;;;;;;;17.95;7.00;;;4.40;99.90;;;;;;5227776;28;20137;-71
2022/01/20 08:04:37;;;;;;;16.65;6.70;;;4.50;99.90;;;;;;5255520;28;20032;-70
2022/01/20 08:07:08;;;;;;;17.95;6.38;;;4.50;99.90;;;;;;5239766;28;20025;-71
2022/01/20 08:09:41;;;;;;;16.48;7.07;;;4.50;99.90;;;;;;5248325;28;20367;-70
2022/01/20 08:12:12;;;;;;;16.65;6.97;;;4.40;99.90;;;;;;5248209;28;20025;-71
2022/01/20 08:14:43;;;;;;;17.33;7.03;;;4.60;99.90;;;;;;5231152;28;20036;-69
2022/01/20 08:17:14;;;;;;;13.98;7.30;;;4.60;99.90;;;;;;5249718;28;20027;-70
2022/01/20 08:19:45;;;;;;;12.63;6.55;;;4.60;99.90;;;;;;5250227;28;20033;-70
2022/01/20 08:22:16;;;;;;;15.73;7.30;;;4.60;99.90;;;;;;5257890;28;20111;-70
2022/01/20 08:24:52;;;;;;;17.55;9.02;;;4.60;99.90;;;;;;5260342;28;20051;-69
2022/01/20 08:27:23;;;;;;;20.30;6.70;;;4.70;99.90;;;;;;5249489;28;20388;-71
2022/01/20 08:29:54;;;;;;;15.40;6.82;;;5.20;99.90;;;;;;5222414;28;20047;-70
2022/01/20 08:32:25;;;;;;;22.17;7.93;;;5.20;99.90;;;;;;5241598;28;20476;-69
2022/01/20 08:34:56;;;;;;;17.40;6.63;;;5.70;99.90;;;;;;5229873;28;20031;-80
2022/01/20 08:37:26;;;;;;;16.42;6.95;;;5.70;99.90;;;;;;5247504;28;20032;-75
2022/01/20 08:39:57;;;;;;;15.43;7.10;;;5.60;99.90;;;;;;5239196;28;20078;-74
2022/01/20 08:42:28;;;;;;;19.20;7.40;;;5.80;99.90;;;;;;5246509;28;20039;-70
2022/01/20 08:44:59;;;;;;;19.42;7.80;;;6.10;99.90;;;;;;5243066;28;20025;-70
2022/01/20 08:47:30;;;;;;;17.48;6.65;;;5.90;99.90;;;;;;5245323;28;20384;-70
2022/01/20 08:50:01;;;;;;;17.98;5.72;;;6.30;99.90;;;;;;5237998;28;20039;-70
2022/01/20 08:52:33;;;;;;;17.30;7.70;;;5.80;99.90;;;;;;5250109;28;20091;-70
2022/01/20 08:55:05;;;;;;;15.85;5.88;;;5.80;99.90;;;;;;5243956;28;20029;-70
2022/01/20 08:57:36;;;;;;;16.08;6.10;;;5.70;99.90;;;;;;5239520;28;20134;-70
2022/01/20 09:00:09;;;;;;;12.82;5.97;;;5.80;99.90;;;;;;5249512;28;20452;-70
2022/01/20 09:02:40;;;;;;;13.27;5.53;;;6.10;99.90;;;;;;5241599;28;20028;-71
2022/01/20 09:05:11;;;;;;;17.70;6.43;;;6.00;99.90;;;;;;5248277;28;20028;-70
2022/01/20 09:07:42;;;;;;;9.73;4.95;;;5.70;99.90;;;;;;5232650;28;20056;-71
2022/01/20 09:10:19;;;;;;;17.45;5.97;;;5.80;99.90;;;;;;5234438;28;20024;-70
2022/01/20 09:15:42;;;;;;;14.88;6.25;;;6.10;99.90;;;;;;5243001;28;20434;-71
2022/01/20 09:18:14;;;;;;;21.25;5.95;;;5.80;99.90;;;;;;5239247;28;20013;-71
2022/01/20 09:20:45;;;;;;;18.45;6.78;;;6.30;99.90;;;;;;5242694;28;20021;-71
2022/01/20 09:23:16;;;;;;;19.65;6.57;;;6.50;99.90;;;;;;5248822;28;20388;-70
2022/01/20 09:25:49;;;;;;;12.88;6.32;;;6.50;99.90;;;;;;5247952;28;20028;-71
2022/01/20 09:38:25;;;;;;;14.00;5.50;;;6.40;99.90;;;;;;5246580;28;20024;-70
2022/01/20 09:40:56;;;;;;;12.77;5.47;;;6.50;99.90;;;;;;5248167;28;20467;-70
2022/01/20 09:43:27;;;;;;;15.73;6.65;;;6.50;99.90;;;;;;5248446;28;20033;-72
2022/01/20 09:45:58;;;;;;;13.25;6.05;;;6.90;99.90;;;;;;5248520;28;20017;-71
2022/01/20 09:48:32;;;;;;;14.32;6.45;;;6.70;99.90;;;;;;5247689;28;20417;-71
2022/01/20 09:53:40;;;;;;;15.30;5.70;;;6.50;99.90;;;;;;5247185;28;20035;-72
2022/01/20 09:56:13;;;;;;;18.67;6.18;;;7.10;99.90;;;;;;5248131;28;20021;-71
2022/01/20 09:58:45;;;;;;;18.98;6.90;;;7.10;99.90;;;;;;5247670;28;20063;-71
2022/01/20 10:01:38;;;;;;;13.95;5.35;;;7.70;99.90;;;;;;5248235;28;20032;-71
2022/01/20 10:04:24;;;;;;;13.70;5.78;;;7.40;99.90;;;;;;5247011;28;20403;-71
2022/01/20 10:07:02;;;;;;;10.65;5.07;;;7.40;99.90;;;;;;5248403;28;20033;-72
2022/01/20 10:09:41;;;;;;;19.65;6.47;;;7.20;99.90;;;;;;5248179;28;20040;-72
2022/01/20 10:12:15;;;;;;;24.38;6.25;;;7.20;99.90;;;;;;5248006;28;20032;-71
2022/01/20 10:19:54;;;;;;;19.17;6.15;;;6.90;99.90;;;;;;5240458;28;20899;-72
2022/01/20 10:22:25;;;;;;;25.73;6.50;;;7.70;99.90;;;;;;5241027;28;20487;-73
2022/01/20 10:25:14;;;;;;;15.55;6.05;;;7.90;99.90;;;;;;5247439;28;20024;-72
2022/01/20 10:27:50;;;;;;;14.25;6.07;;;7.90;99.90;;;;;;5247065;28;20387;-72
2022/01/20 10:30:24;;;;;;;15.70;6.00;;;7.50;99.90;;;;;;5247746;28;20028;-73
2022/01/20 10:32:58;;;;;;;15.00;7.15;;;7.90;99.90;;;;;;5223258;28;20032;-73
2022/01/20 10:35:33;;;;;;;13.80;7.05;;;7.50;99.90;;;;;;5246969;28;20016;-73
2022/01/20 10:38:15;;;;;;;15.30;6.75;;;7.80;99.90;;;;;;5246796;28;20021;-72
2022/01/20 10:40:50;;;;;;;15.38;6.18;;;7.80;99.90;;;;;;5246991;28;20029;-70
2022/01/20 10:43:28;;;;;;;16.33;6.20;;;8.00;99.90;;;;;;5247103;28;20037;-71
2022/01/20 10:46:06;;;;;;;17.38;6.25;;;8.40;99.90;;;;;;5246117;28;20025;-71
2022/01/20 10:48:37;;;;;;;14.38;5.60;;;8.10;99.90;;;;;;5242016;28;20035;-71
2022/01/20 10:51:18;;;;;;;15.05;4.78;;;8.50;99.90;;;;;;5247591;28;20073;-70
2022/01/20 10:54:13;;;;;;;11.20;5.75;;;8.50;99.90;;;;;;5246762;28;20028;-71
2022/01/20 10:56:48;;;;;;;18.40;6.13;;;8.30;99.90;;;;;;5247306;28;20497;-71
2022/01/20 10:59:21;;;;;;;15.60;6.15;;;8.60;99.90;;;;;;5240627;28;20052;-71
2022/01/20 11:02:09;;;;;;;12.05;5.63;;;8.20;99.90;;;;;;5245450;28;20040;-72
2022/01/20 11:04:40;;;;;;;17.70;6.43;;;8.20;99.90;;;;;;5245694;28;20021;-71
2022/01/20 11:07:11;;;;;;;13.57;6.50;;;8.50;99.90;;;;;;5247068;28;20082;-70
2022/01/20 11:09:43;;;;;;;12.88;5.82;;;8.70;99.90;;;;;;5244539;28;20421;-71
2022/01/20 11:12:16;;;;;;;15.18;6.10;;;8.70;99.90;;;;;;5242917;28;20089;-71
2022/01/20 11:14:49;;;;;;;14.80;6.22;;;8.80;99.90;;;;;;5243973;28;20017;-71
2022/01/20 11:17:25;;;;;;;14.20;5.82;;;8.50;99.90;;;;;;5246705;28;20043;-72
2022/01/20 11:20:02;;;;;;;13.40;5.63;;;9.40;99.90;;;;;;5247063;28;20092;-70
2022/01/20 11:22:34;;;;;;;15.52;6.00;;;8.60;99.90;;;;;;5246457;28;20040;-70
2022/01/20 11:25:09;;;;;;;18.00;6.03;;;8.70;99.90;;;;;;5241959;28;20024;-71
2022/01/20 11:27:43;;;;;;;15.05;6.03;;;8.40;99.90;;;;;;5244584;28;20032;-71
2022/01/20 11:30:23;;;;;;;12.32;6.07;;;8.50;99.90;;;;;;5246559;28;20024;-70
2022/01/20 11:32:59;;;;;;;15.77;6.53;;;8.30;99.90;;;;;;5247037;28;20025;-70
2022/01/20 11:35:49;;;;;;;20.35;5.75;;;8.60;99.90;;;;;;5247011;28;20067;-72
2022/01/20 11:38:21;;;;;;;19.10;6.50;;;8.80;99.90;;;;;;5243271;28;20025;-71
2022/01/20 11:40:58;;;;;;;13.93;6.25;;;8.70;99.90;;;;;;5246241;28;20388;-70
2022/01/20 11:43:35;;;;;;;14.30;6.15;;;8.50;99.90;;;;;;5246028;28;20048;-71
2022/01/20 11:46:16;;;;;;;19.92;6.40;;;9.00;99.90;;;;;;5246514;28;20029;-70
2022/01/20 11:49:09;;;;;;;15.23;6.50;;;8.70;99.90;;;;;;5249314;28;20099;-70
2022/01/20 11:51:54;;;;;;;11.25;5.00;;;8.90;99.90;;;;;;5250386;28;20063;-71
2022/01/20 11:54:27;;;;;;;14.68;5.93;;;9.00;99.90;;;;;;5250221;28;20055;-71
2022/01/20 11:57:16;;;;;;;15.57;5.40;;;9.40;99.90;;;;;;5250076;28;20021;-71
2022/01/20 11:59:55;;;;;;;14.73;5.85;;;9.40;99.90;;;;;;5206995;28;20448;-71
2022/01/20 12:02:28;;;;;;;12.20;5.25;;;9.30;99.90;;;;;;5205115;28;20044;-70
2022/01/20 12:05:17;;;;;;;16.58;5.30;;;9.10;99.90;;;;;;5209115;28;20025;-71
2022/01/20 12:07:49;;;;;;;18.65;6.07;;;9.50;99.90;;;;;;5207370;28;20027;-71
2022/01/20 12:10:26;;;;;;;16.75;3.95;;;10.20;99.90;;;;;;5208680;28;20018;-71
2022/01/20 12:13:11;;;;;;;10.43;4.25;;;9.80;99.90;;;;;;5207885;28;20033;-71
2022/01/20 12:15:51;;;;;;;9.35;3.83;;;9.60;99.90;;;;;;5208514;28;20377;-72
2022/01/20 12:18:21;;;;;;;13.00;4.63;;;10.00;99.90;;;;;;5208817;28;20127;-71
2022/01/20 12:20:52;;;;;;;12.45;4.53;;;9.90;99.90;;;;;;5208590;28;20053;-73
2022/01/20 12:23:24;;;;;;;15.45;5.07;;;9.80;99.90;;;;;;5208811;28;20033;-73
2022/01/20 12:26:05;;;;;;;12.10;4.15;;;9.60;99.90;;;;;;5208216;28;20017;-71
2022/01/20 12:28:36;;;;;;;17.40;4.93;;;9.60;99.90;;;;;;5208599;28;20376;-72
2022/01/20 12:31:12;;;;;;;16.73;5.32;;;9.70;99.90;;;;;;5208480;28;20034;-71
2022/01/20 12:33:45;;;;;;;12.27;4.55;;;10.00;99.90;;;;;;5208511;28;20109;-71
2022/01/20 12:36:17;;;;;;;17.48;6.78;;;9.70;99.90;;;;;;5208241;28;20030;-72
2022/01/20 12:38:50;;;;;;;14.60;4.90;;;9.20;99.90;;;;;;5208578;28;20029;-73
2022/01/20 12:41:23;;;;;;;13.73;5.25;;;9.70;99.90;;;;;;5208262;28;20487;-73
2022/01/20 12:44:06;;;;;;;16.02;5.57;;;9.20;99.90;;;;;;5208267;28;20057;-71
2022/01/20 12:46:41;;;;;;;16.50;5.32;;;8.90;99.90;;;;;;5208352;28;20037;-72
2022/01/20 12:49:14;;;;;;;10.63;4.45;;;9.50;99.90;;;;;;5207235;28;20037;-72
2022/01/20 12:51:54;;;;;;;12.82;4.97;;;10.20;99.90;;;;;;5207996;28;20086;-73
2022/01/20 12:54:30;;;;;;;9.45;4.18;;;9.50;99.90;;;;;;5207725;28;20025;-73
2022/01/20 12:57:09;;;;;;;7.97;3.97;;;9.60;99.90;;;;;;5208097;28;20041;-73
2022/01/20 12:59:42;;;;;;;11.10;3.72;;;9.50;99.90;;;;;;5247840;28;20071;-72
2022/01/20 13:02:20;;;;;;;6.22;3.00;;;9.50;99.90;;;;;;5249064;28;20376;-72
2022/01/20 13:04:56;;;;;;;13.20;3.65;;;9.80;99.90;;;;;;5234823;28;20037;-73
2022/01/20 13:07:29;;;;;;;8.38;3.25;;;9.40;99.90;;;;;;5248976;28;20480;-71
2022/01/20 13:10:08;;;;;;;9.02;3.47;;;9.40;99.90;;;;;;5249144;28;20099;-73
2022/01/20 13:12:40;;;;;;;11.93;3.80;;;9.40;99.90;;;;;;5248970;28;20025;-73
2022/01/20 13:15:17;;;;;;;11.40;3.72;;;9.80;99.90;;;;;;5248919;28;20013;-73
2022/01/20 13:18:01;;;;;;;7.00;3.45;;;9.90;99.90;;;;;;5248941;28;20448;-73
2022/01/20 13:20:32;;;;;;;8.32;3.53;;;9.90;99.90;;;;;;5235967;28;20032;-73
2022/01/20 13:23:54;;;;;;;8.40;3.13;;;9.70;99.90;;;;;;5248368;28;20032;-73
2022/01/20 13:26:06;;;;;;;9.40;3.10;;;9.50;99.90;;;;;;5248441;28;20063;-73
2022/01/20 13:28:37;;;;;;;13.75;3.80;;;9.90;99.90;;;;;;5248285;28;20035;-73
2022/01/20 13:31:16;;;;;;;10.43;3.70;;;9.90;99.90;;;;;;5248508;28;20020;-71
2022/01/20 13:33:47;;;;;;;9.25;4.35;;;9.70;99.90;;;;;;5248286;28;20025;-71
2022/01/20 13:36:20;;;;;;;10.10;4.47;;;9.30;99.90;;;;;;5248437;28;20088;-73
2022/01/20 13:38:59;;;;;;;12.80;4.57;;;9.10;99.90;;;;;;5239853;28;20081;-71
2022/01/20 13:41:30;;;;;;;10.75;4.15;;;9.50;99.90;;;;;;5225296;28;20399;-71
2022/01/20 13:47:05;;;;;;;11.52;4.18;;;9.20;99.90;;;;;;5248314;28;20126;-72
2022/01/20 13:49:48;;;;;;;14.65;4.82;;;9.10;99.90;;;;;;5244156;28;20032;-72
2022/01/20 13:52:21;;;;;;;15.45;5.50;;;8.60;99.90;;;;;;5248176;28;20098;-73
2022/01/20 13:54:57;;;;;;;18.83;6.68;;;8.80;99.90;;;;;;5248385;28;20017;-72
2022/01/20 13:57:37;;;;;;;18.67;5.93;;;8.70;99.90;;;;;;5247876;28;20094;-73
2022/01/20 14:00:10;;;;;;;16.90;6.05;;;8.50;99.90;;;;;;5245553;28;20062;-72
2022/01/20 14:02:47;;;;;;;18.95;6.55;;;8.40;99.90;;;;;;5247591;28;20090;-71
2022/01/20 14:05:21;;;;;;;14.98;6.28;;;8.50;99.90;;;;;;5248105;28;20024;-71
2022/01/20 14:07:52;;;;;;;17.65;8.98;;;8.10;99.90;;;;;;5247543;28;20024;-70
2022/01/20 14:10:22;;;;;;;33.33;15.00;;;7.80;99.90;;;;;;5247761;28;20028;-70
2022/01/20 14:12:54;;;;;;;67.18;28.38;;;7.90;99.90;;;;;;5246731;28;20031;-71
2022/01/20 14:15:26;;;;;;;14.50;6.05;;;7.90;99.90;;;;;;5241684;28;20033;-71
2022/01/20 14:17:59;;;;;;;19.73;7.18;;;7.80;99.90;;;;;;5235415;28;20025;-71
2022/01/20 14:20:37;;;;;;;26.63;8.15;;;7.90;99.90;;;;;;5240436;28;20025;-71
2022/01/20 14:23:08;;;;;;;21.00;7.57;;;7.70;99.90;;;;;;5241648;28;20025;-71
2022/01/20 14:25:42;;;;;;;18.33;6.85;;;7.70;99.90;;;;;;5245445;28;20035;-71
2022/01/20 14:28:13;;;;;;;22.98;12.43;;;7.60;99.90;;;;;;5243122;28;20103;-71
2022/01/20 14:30:45;;;;;;;16.42;6.55;;;7.50;99.90;;;;;;5240906;28;20035;-73
2022/01/20 14:33:16;;;;;;;14.40;5.97;;;7.60;99.90;;;;;;5240300;28;20531;-71
2022/01/20 14:35:46;;;;;;;21.58;9.35;;;7.50;99.90;;;;;;5243516;28;20036;-71
2022/01/20 14:38:19;;;;;;;18.58;9.32;;;7.50;99.90;;;;;;5242186;28;20062;-71
2022/01/20 14:40:53;;;;;;;21.10;7.13;;;7.40;99.90;;;;;;5241556;28;20363;-72
2022/01/20 14:43:24;;;;;;;17.50;7.05;;;7.30;99.90;;;;;;5238876;28;20049;-71